Time;durP1;ratioP1;P1;durP2;ratioP2;P2;SDS_P1;SDS_P2;PMS_P1;PMS_P2;Temp;Humidity;BMP_temperature;BMP_pressure;BME280_temperature;BME280_humidity;BME280_pressure;Samples;Min_cycle;Max_cycle;Signal;HPM_P1;HPM_P2
2021/04/27 00:02:01;;;;;;;8.63;3.67;;;;;;;2.17;66.18;99424.58;1742122;82;21251;-60
2021/04/27 00:04:29;;;;;;;5.55;3.22;;;;;;;2.15;66.39;99422.66;1750807;80;21160;-60
2021/04/27 00:06:56;;;;;;;6.95;3.85;;;;;;;2.12;66.53;99424.45;1738124;80;21310;-60
2021/04/27 00:09:23;;;;;;;8.55;3.80;;;;;;;2.09;66.80;99420.88;1740633;81;21165;-60
2021/04/27 00:11:51;;;;;;;9.18;4.40;;;;;;;2.06;66.99;99426.67;1736099;81;21302;-60
2021/04/27 00:14:19;;;;;;;8.00;3.70;;;;;;;2.02;67.28;99423.61;1736101;82;21177;-60
2021/04/27 00:16:46;;;;;;;8.70;4.60;;;;;;;2.00;67.47;99422.52;1742823;82;21177;-58
2021/04/27 00:19:13;;;;;;;8.85;4.45;;;;;;;1.99;67.44;99425.41;1741690;80;21214;-59
2021/04/27 00:21:41;;;;;;;7.90;4.03;;;;;;;1.98;67.55;99427.27;1739559;80;21161;-59
2021/04/27 00:24:09;;;;;;;6.55;3.70;;;;;;;1.97;67.58;99436.39;1762143;80;21156;-59
2021/04/27 00:26:36;;;;;;;9.25;4.17;;;;;;;1.95;67.79;99428.23;1756113;80;21192;-59
2021/04/27 00:29:04;;;;;;;8.00;4.65;;;;;;;1.92;67.95;99428.69;1756079;80;21229;-59
2021/04/27 00:31:33;;;;;;;8.03;4.42;;;;;;;1.89;68.01;99428.63;1755786;80;21720;-59
2021/04/27 00:34:01;;;;;;;9.50;4.75;;;;;;;1.89;68.17;99425.11;1752289;81;21180;-59
2021/04/27 00:36:28;;;;;;;12.03;4.97;;;;;;;1.87;68.32;99432.58;1746142;80;21175;-60
2021/04/27 00:38:56;;;;;;;8.28;4.25;;;;;;;1.86;68.48;99433.61;1749750;80;21214;-59
2021/04/27 00:41:24;;;;;;;8.80;4.22;;;;;;;1.81;68.61;99430.25;1737925;80;21192;-59
2021/04/27 00:43:51;;;;;;;8.63;3.98;;;;;;;1.79;68.79;99429.66;1745821;81;21165;-60
2021/04/27 00:46:18;;;;;;;8.15;4.00;;;;;;;1.78;68.91;99433.89;1752076;81;21144;-61
2021/04/27 00:48:46;;;;;;;7.58;4.08;;;;;;;1.76;69.01;99430.63;1757090;80;21587;-59
2021/04/27 00:51:14;;;;;;;10.08;4.08;;;;;;;1.74;69.27;99424.64;1752925;81;21133;-59
2021/04/27 00:53:41;;;;;;;7.95;3.92;;;;;;;1.74;69.38;99427.33;1752284;81;21171;-59
2021/04/27 00:56:09;;;;;;;10.55;3.72;;;;;;;1.71;69.44;99421.06;1712380;82;21157;-59
2021/04/27 00:58:37;;;;;;;8.38;3.70;;;;;;;1.68;69.58;99428.22;1711697;83;21134;-60
2021/04/27 01:01:04;;;;;;;7.30;3.55;;;;;;;1.67;69.74;99431.94;1689117;85;21339;-59
2021/04/27 01:03:31;;;;;;;5.95;3.50;;;;;;;1.65;69.92;99427.33;1696042;84;21562;-59
2021/04/27 01:05:58;;;;;;;5.87;3.22;;;;;;;1.65;69.92;99436.20;1711961;83;21153;-59
2021/04/27 01:08:46;;;;;;;8.23;3.30;;;;;;;1.66;70.05;99438.38;1707318;82;21756;-59
2021/04/27 01:11:26;;;;;;;;;;;;;;;1.67;70.08;99439.48;1694427;82;21809;-60
2021/04/27 01:14:19;;;;;;;8.00;3.15;;;;;;;1.65;70.30;99435.38;1709806;83;20157;-59
2021/04/27 01:16:50;;;;;;;5.90;2.75;;;;;;;1.50;70.97;99436.55;1702125;82;21149;-60
2021/04/27 01:19:30;;;;;;;4.30;2.47;;;;;;;1.50;71.70;99433.86;1727597;82;21310;-60
2021/04/27 01:21:58;;;;;;;4.05;2.20;;;;;;;1.57;71.72;99437.82;1749534;80;21212;-58
2021/04/27 01:24:46;;;;;;;5.17;2.62;;;;;;;1.53;71.89;99439.30;1766378;81;21185;-58
2021/04/27 01:27:14;;;;;;;6.15;2.77;;;;;;;1.48;72.13;99447.20;1738307;82;21258;-58
2021/04/27 01:31:23;;;;;;;6.45;3.00;;;;;;;1.58;72.39;99436.79;1775876;79;22916;-59
2021/04/27 01:33:51;;;;;;;6.10;3.77;;;;;;;1.53;72.51;99438.48;1738326;82;21217;-60
2021/04/27 01:36:18;;;;;;;5.85;2.80;;;;;;;1.53;72.45;99447.34;1746833;82;21228;-60
2021/04/27 01:38:54;;;;;;;5.00;2.77;;;;;;;1.58;72.44;99435.97;1797815;79;23158;-59
2021/04/27 01:41:23;;;;;;;5.37;2.62;;;;;;;1.58;72.27;99436.79;1776101;81;21306;-59
2021/04/27 01:43:50;;;;;;;4.60;2.72;;;;;;;1.59;72.29;99442.47;1783063;80;21294;-59
2021/04/27 01:46:18;;;;;;;10.58;2.77;;;;;;;1.53;72.39;99437.13;1799399;80;21164;-59
2021/04/27 01:48:45;;;;;;;5.42;3.15;;;;;;;1.49;72.53;99441.61;1750760;80;21291;-59
2021/04/27 01:51:15;;;;;;;5.50;2.60;;;;;;;1.53;72.88;99443.84;1787415;80;21277;-59
2021/04/27 01:54:02;;;;;;;5.33;2.80;;;;;;;1.53;72.89;99443.84;1788077;80;21164;-59
2021/04/27 01:56:30;;;;;;;6.15;3.17;;;;;;;1.50;73.13;99439.75;1776138;80;21281;-60
2021/04/27 01:58:58;;;;;;;5.35;2.92;;;;;;;1.41;73.71;99443.25;1788516;80;21177;-59
2021/04/27 02:01:27;;;;;;;4.97;2.58;;;;;;;1.38;73.87;99446.89;1794866;80;21156;-59
2021/04/27 02:03:56;;;;;;;6.12;2.85;;;;;;;1.42;73.78;99448.06;1788252;80;21153;-59
2021/04/27 02:06:23;;;;;;;5.62;2.90;;;;;;;1.41;74.03;99441.08;1794202;80;21123;-59
2021/04/27 02:09:01;;;;;;;6.47;3.33;;;;;;;1.34;74.55;99445.68;1793982;80;21061;-59
2021/04/27 02:11:30;;;;;;;5.27;2.53;;;;;;;1.33;74.63;99444.85;1796259;80;21695;-59
2021/04/27 02:14:06;;;;;;;5.33;2.87;;;;;;;1.40;74.34;99444.80;1790236;80;21221;-59
2021/04/27 02:17:02;;;;;;;5.28;3.00;;;;;;;1.40;74.49;99440.25;1794371;80;21242;-59
2021/04/27 02:19:31;;;;;;;10.70;3.25;;;;;;;1.34;74.73;99447.02;1796106;80;21636;-60
2021/04/27 02:22:08;;;;;;;5.50;2.90;;;;;;;1.40;74.68;99449.64;1805281;79;22846;-60
2021/04/27 02:24:43;;;;;;;4.85;2.80;;;;;;;1.36;74.63;99448.44;1757712;80;21859;-59
2021/04/27 02:27:11;;;;;;;4.58;2.70;;;;;;;1.32;74.86;99446.40;1759644;81;21282;-59
2021/04/27 02:29:39;;;;;;;6.60;2.55;;;;;;;1.30;74.95;99441.27;1759503;80;21311;-58
2021/04/27 02:32:07;;;;;;;5.20;2.50;;;;;;;1.37;74.68;99439.36;1759830;81;21660;-59
2021/04/27 02:34:37;;;;;;;6.10;3.08;;;;;;;1.39;74.69;99438.60;1757247;81;21331;-59
2021/04/27 02:37:05;;;;;;;5.90;3.05;;;;;;;1.33;74.74;99445.37;1759547;81;21294;-59
2021/04/27 02:39:37;;;;;;;4.65;2.80;;;;;;;1.29;74.90;99438.28;1729297;80;21769;-59
2021/04/27 02:42:06;;;;;;;5.50;2.83;;;;;;;1.30;74.81;99443.13;1757465;81;21316;-58
2021/04/27 02:44:50;;;;;;;7.17;3.20;;;;;;;1.36;74.77;99436.36;1763214;80;21136;-59
2021/04/27 02:47:19;;;;;;;6.62;2.55;;;;;;;1.29;74.80;99438.28;1768144;80;21137;-60
2021/04/27 02:49:47;;;;;;;5.72;3.33;;;;;;;1.22;75.26;99446.90;1776568;80;21157;-59
2021/04/27 02:52:16;;;;;;;6.75;2.98;;;;;;;1.20;75.28;99447.66;1745890;80;21145;-59
2021/04/27 02:54:45;;;;;;;4.72;2.65;;;;;;;1.30;75.07;99449.31;1768151;80;21178;-59
2021/04/27 02:57:13;;;;;;;6.28;3.15;;;;;;;1.31;75.16;99446.12;1757328;81;21157;-59
2021/04/27 02:59:42;;;;;;;6.45;3.35;;;;;;;1.24;75.37;99446.70;1757391;80;21652;-59
2021/04/27 03:02:11;;;;;;;5.80;3.20;;;;;;;1.20;75.70;99452.19;1757537;81;21315;-58
2021/04/27 03:04:38;;;;;;;5.85;3.05;;;;;;;1.23;75.70;99446.39;1723531;83;21200;-59
2021/04/27 03:07:13;;;;;;;4.35;2.35;;;;;;;1.30;75.41;99449.83;1711656;83;21621;-58
2021/04/27 03:09:43;;;;;;;5.65;3.22;;;;;;;1.23;75.87;99449.06;1713956;83;21755;-59
2021/04/27 03:12:11;;;;;;;5.72;3.40;;;;;;;1.17;75.90;99453.97;1705994;84;21332;-59
2021/04/27 03:14:40;;;;;;;4.95;2.92;;;;;;;1.19;75.85;99454.05;1706099;84;21200;-61
2021/04/27 03:17:07;;;;;;;4.97;2.80;;;;;;;1.26;75.81;99457.49;1706639;83;21169;-60
2021/04/27 03:19:38;;;;;;;5.53;2.80;;;;;;;1.28;75.73;99463.45;1733735;83;21318;-60
2021/04/27 03:22:13;;;;;;;6.85;3.02;;;;;;;1.27;76.00;99464.51;1779674;79;22629;-59
2021/04/27 03:24:41;;;;;;;5.37;3.20;;;;;;;1.25;76.09;99463.89;1734225;82;21351;-60
2021/04/27 03:27:09;;;;;;;5.65;3.60;;;;;;;1.29;76.30;99462.41;1719509;83;21310;-61
2021/04/27 03:29:53;;;;;;;4.35;3.08;;;;;;;1.29;76.21;99462.41;1706106;82;21300;-61
2021/04/27 03:32:20;;;;;;;6.22;3.33;;;;;;;1.26;76.49;99463.38;1720329;83;21746;-58
2021/04/27 03:34:48;;;;;;;7.10;3.55;;;;;;;1.28;76.71;99466.64;1719271;83;21161;-59
2021/04/27 03:37:15;;;;;;;6.90;3.65;;;;;;;1.37;76.54;99466.17;1708587;83;21161;-58
2021/04/27 03:39:43;;;;;;;7.53;3.50;;;;;;;1.39;76.69;99463.26;1695842;83;21152;-59
2021/04/27 03:42:11;;;;;;;6.97;3.62;;;;;;;1.37;76.78;99466.69;1645406;87;21612;-58
2021/04/27 03:44:38;;;;;;;7.17;3.98;;;;;;;1.37;76.82;99468.03;1612680;86;21169;-59
2021/04/27 03:47:06;;;;;;;8.78;3.58;;;;;;;1.46;76.91;99466.70;1651114;86;21196;-59
2021/04/27 03:49:35;;;;;;;5.78;3.40;;;;;;;1.49;76.65;99463.06;1642752;86;21216;-59
2021/04/27 03:52:03;;;;;;;6.90;3.72;;;;;;;1.49;76.74;99467.09;1672014;85;21173;-65
2021/04/27 03:54:31;;;;;;;6.08;3.45;;;;;;;1.50;76.91;99468.73;1670490;85;21205;-58
2021/04/27 03:56:58;;;;;;;6.35;3.40;;;;;;;1.57;76.83;99469.19;1676187;85;21612;-58
2021/04/27 03:59:25;;;;;;;7.42;3.27;;;;;;;1.67;76.53;99466.30;1660734;85;21482;-59
2021/04/27 04:01:53;;;;;;;5.05;3.17;;;;;;;1.73;76.33;99457.39;1671840;84;21184;-59
2021/04/27 04:04:23;;;;;;;5.22;3.30;;;;;;;1.75;76.24;99464.69;1678079;84;21609;-59
2021/04/27 04:07:02;;;;;;;6.10;3.25;;;;;;;1.79;76.31;99457.84;1787494;79;22601;-59
2021/04/27 04:09:31;;;;;;;6.55;3.58;;;;;;;1.88;75.96;99463.73;1745577;80;21627;-58
2021/04/27 04:12:13;;;;;;;5.22;3.02;;;;;;;2.09;75.52;99465.97;1816534;79;23144;-59
2021/04/27 04:14:41;;;;;;;7.05;3.55;;;;;;;2.10;75.22;99462.25;1782751;80;21344;-59
2021/04/27 04:17:11;;;;;;;5.40;3.20;;;;;;;2.14;75.05;99469.34;1766920;80;21141;-59
2021/04/27 04:19:39;;;;;;;6.53;3.20;;;;;;;2.15;75.01;99463.77;1671515;84;21208;-61
2021/04/27 04:22:08;;;;;;;5.75;3.55;;;;;;;2.29;74.78;99460.39;1678088;84;21181;-60
2021/04/27 04:24:41;;;;;;;5.30;3.30;;;;;;;2.43;74.16;99465.39;1725836;82;21201;-61
2021/04/27 04:27:09;;;;;;;5.10;3.40;;;;;;;2.56;74.25;99470.28;1700628;83;21161;-58
2021/04/27 04:29:39;;;;;;;5.60;3.40;;;;;;;2.70;73.71;99480.63;1723952;81;21636;-59
2021/04/27 04:32:24;;;;;;;5.53;3.30;;;;;;;2.95;73.35;99475.95;1753070;79;22714;-59
2021/04/27 04:35:12;;;;;;;6.03;3.30;;;;;;;3.16;72.54;99478.63;1729663;82;21214;-58
2021/04/27 04:37:58;;;;;;;6.20;3.70;;;;;;;3.27;71.36;99470.30;1710644;83;21172;-59
2021/04/27 04:40:33;;;;;;;8.10;3.95;;;;;;;3.32;71.71;99475.30;1656450;84;21188;-60
2021/04/27 04:43:12;;;;;;;5.45;3.40;;;;;;;3.37;70.53;99475.93;1641000;85;21177;-58
2021/04/27 04:45:59;;;;;;;4.62;3.02;;;;;;;3.30;70.24;99478.73;1694351;83;21335;-58
2021/04/27 04:48:50;;;;;;;5.50;3.22;;;;;;;3.40;70.02;99474.94;1773287;79;22374;-58
2021/04/27 04:51:20;;;;;;;4.65;2.65;;;;;;;3.45;70.11;99477.77;1702914;83;21817;-59
2021/04/27 04:53:56;;;;;;;6.37;3.40;;;;;;;3.55;69.78;99480.40;1689048;83;21189;-60
2021/04/27 04:56:23;;;;;;;6.10;3.55;;;;;;;3.61;69.43;99477.63;1699419;83;21121;-60
2021/04/27 04:58:50;;;;;;;6.08;3.22;;;;;;;3.57;68.82;99479.14;1717162;83;21299;-60
2021/04/27 05:01:19;;;;;;;6.35;3.20;;;;;;;3.55;69.01;99479.05;1722933;83;21147;-60
2021/04/27 05:04:05;;;;;;;7.08;3.85;;;;;;;3.61;68.72;99479.49;1708666;83;21136;-59
2021/04/27 05:06:57;;;;;;;6.97;4.15;;;;;;;3.67;68.10;99478.03;1722754;83;21330;-60
2021/04/27 05:09:41;;;;;;;7.55;3.45;;;;;;;3.69;68.21;99482.64;1679709;83;21655;-60
2021/04/27 05:12:10;;;;;;;5.85;3.90;;;;;;;3.67;67.88;99476.69;1678478;85;21498;-60
2021/04/27 05:14:55;;;;;;;5.83;3.45;;;;;;;3.68;68.13;99486.93;1676777;85;21176;-60
2021/04/27 05:17:23;;;;;;;7.20;4.80;;;;;;;3.62;68.33;99487.84;1677562;83;21223;-60
2021/04/27 05:19:51;;;;;;;5.05;3.33;;;;;;;3.67;68.23;99490.66;1698708;84;21209;-61
2021/04/27 05:22:20;;;;;;;5.75;3.65;;;;;;;3.76;67.88;99491.42;1698941;83;21770;-59
2021/04/27 05:24:47;;;;;;;7.75;3.75;;;;;;;3.86;67.67;99494.34;1720035;82;21165;-59
2021/04/27 05:27:16;;;;;;;6.87;4.17;;;;;;;3.78;67.61;99462.94;1720219;83;21299;-60
2021/04/27 05:29:44;;;;;;;6.80;4.65;;;;;;;4.06;66.97;99489.97;1720092;82;21201;-60
2021/04/27 05:32:12;;;;;;;6.05;3.58;;;;;;;4.18;66.63;99482.67;1720224;83;21295;-60
2021/04/27 05:34:40;;;;;;;8.20;3.45;;;;;;;4.19;65.90;99483.50;1719973;82;21253;-61
2021/04/27 05:37:07;;;;;;;7.50;4.37;;;;;;;4.15;65.52;99482.33;1719920;83;21168;-60
2021/04/27 05:39:34;;;;;;;9.08;4.65;;;;;;;4.18;66.62;99483.23;1679206;83;21183;-61
2021/04/27 05:42:03;;;;;;;6.28;4.03;;;;;;;4.39;66.40;99482.05;1705235;83;21509;-60
2021/04/27 05:44:31;;;;;;;6.95;3.83;;;;;;;4.67;65.54;99481.83;1700193;83;21594;-61
2021/04/27 05:46:58;;;;;;;6.85;3.85;;;;;;;4.80;64.75;99482.88;1709195;83;21314;-59
2021/04/27 05:49:26;;;;;;;7.85;3.42;;;;;;;4.93;64.39;99474.50;1663022;84;21197;-60
2021/04/27 05:51:54;;;;;;;6.20;4.00;;;;;;;5.11;63.68;99478.87;1662202;85;21157;-60
2021/04/27 05:54:21;;;;;;;4.90;3.15;;;;;;;5.22;63.60;99476.12;1691315;84;21171;-59
2021/04/27 05:56:49;;;;;;;5.17;3.00;;;;;;;5.37;62.40;99472.34;1707835;84;21577;-59
2021/04/27 05:59:16;;;;;;;7.03;4.75;;;;;;;5.53;61.68;99476.09;1686145;84;21610;-59
2021/04/27 06:01:44;;;;;;;7.08;3.85;;;;;;;5.58;61.24;99474.02;1696953;84;21371;-61
2021/04/27 06:04:11;;;;;;;5.30;2.90;;;;;;;5.65;61.03;99484.13;1691071;84;21185;-59
2021/04/27 06:06:40;;;;;;;9.93;5.80;;;;;;;5.64;59.68;99486.53;1690334;84;21520;-59
2021/04/27 06:09:08;;;;;;;6.95;3.65;;;;;;;5.73;60.10;99481.84;1686603;84;21224;-61
2021/04/27 06:11:37;;;;;;;4.35;2.22;;;;;;;5.84;59.45;99479.59;1686753;84;21130;-62
2021/04/27 06:14:06;;;;;;;5.60;2.50;;;;;;;5.91;56.71;99488.38;1709025;82;21637;-62
2021/04/27 06:16:34;;;;;;;6.75;4.45;;;;;;;5.97;57.18;99479.80;1704095;83;21327;-61
2021/04/27 06:19:02;;;;;;;6.60;4.33;;;;;;;6.08;57.70;99481.58;1678413;84;21330;-61
2021/04/27 06:21:29;;;;;;;4.85;2.85;;;;;;;6.26;57.76;99476.42;1657590;86;21612;-61
2021/04/27 06:23:56;;;;;;;5.15;2.70;;;;;;;6.63;57.82;99482.02;1675870;84;21321;-61
2021/04/27 06:26:25;;;;;;;6.70;3.20;;;;;;;6.92;56.74;99476.69;1683104;85;21168;-61
2021/04/27 06:28:52;;;;;;;5.78;3.47;;;;;;;7.07;54.40;99478.73;1696569;83;21170;-61
2021/04/27 06:31:20;;;;;;;4.97;3.22;;;;;;;6.95;54.20;99482.94;1707670;82;21300;-61
2021/04/27 06:33:47;;;;;;;4.72;2.10;;;;;;;6.88;54.65;99480.97;1707776;84;21742;-59
2021/04/27 06:36:15;;;;;;;4.80;2.65;;;;;;;7.10;53.46;99480.40;1708733;84;21198;-59
2021/04/27 06:38:43;;;;;;;3.30;1.95;;;;;;;7.29;52.93;99485.75;1709021;82;21177;-59
2021/04/27 06:41:11;;;;;;;4.28;2.65;;;;;;;7.38;52.60;99481.48;1709054;84;21165;-60
2021/04/27 06:43:38;;;;;;;4.47;2.45;;;;;;;7.41;52.11;99487.73;1709126;82;21338;-60
2021/04/27 06:46:07;;;;;;;4.20;2.65;;;;;;;7.46;51.71;99485.63;1709016;83;21300;-61
2021/04/27 06:48:35;;;;;;;4.53;2.25;;;;;;;7.63;49.58;99482.24;1717803;82;21141;-60
2021/04/27 06:51:04;;;;;;;5.33;3.12;;;;;;;7.42;50.82;99477.19;1722754;83;21133;-61
2021/04/27 06:53:33;;;;;;;4.12;2.55;;;;;;;7.28;52.30;99482.75;1722635;82;21169;-61
2021/04/27 06:56:01;;;;;;;6.05;2.20;;;;;;;7.37;51.22;99482.55;1703295;83;21296;-60
2021/04/27 06:58:30;;;;;;;5.42;2.37;;;;;;;7.34;49.83;99483.06;1693878;85;21232;-60
2021/04/27 07:00:58;;;;;;;4.67;2.40;;;;;;;7.11;49.53;99482.58;1705177;83;21136;-60
2021/04/27 07:03:26;;;;;;;2.90;1.90;;;;;;;7.04;51.33;99479.25;1711046;83;21195;-60
2021/04/27 07:05:53;;;;;;;3.45;2.00;;;;;;;7.22;50.12;99478.37;1670709;85;21169;-61
2021/04/27 07:08:21;;;;;;;4.92;2.05;;;;;;;7.35;48.00;99473.88;1685725;85;22128;-61
2021/04/27 07:10:53;;;;;;;3.83;1.87;;;;;;;7.50;48.91;99476.73;1708479;83;21137;-60
2021/04/27 07:13:21;;;;;;;4.83;2.42;;;;;;;7.61;48.25;99471.39;1722704;82;21351;-60
2021/04/27 07:15:48;;;;;;;4.65;2.30;;;;;;;7.77;48.12;99471.78;1722656;83;21145;-61
2021/04/27 07:18:16;;;;;;;3.12;1.60;;;;;;;8.00;47.50;99478.19;1722623;83;21331;-60
2021/04/27 07:20:44;;;;;;;2.65;1.42;;;;;;;8.00;44.09;99476.84;1722595;82;21304;-60
2021/04/27 07:23:11;;;;;;;3.22;1.52;;;;;;;7.84;45.37;99471.02;1722637;83;21177;-61
2021/04/27 07:25:38;;;;;;;3.62;1.70;;;;;;;7.84;44.91;99474.55;1722609;82;21646;-60
2021/04/27 07:28:06;;;;;;;2.15;1.42;;;;;;;7.82;45.60;99478.07;1722780;83;21605;-61
2021/04/27 07:30:34;;;;;;;2.35;1.20;;;;;;;7.86;44.65;99477.01;1708841;82;21315;-60
2021/04/27 07:33:02;;;;;;;2.27;1.20;;;;;;;8.01;44.45;99476.56;1693928;85;21212;-61
2021/04/27 07:35:30;;;;;;;2.35;1.37;;;;;;;8.10;44.94;99471.47;1693803;83;21650;-61
2021/04/27 07:38:01;;;;;;;2.62;1.40;;;;;;;8.15;42.49;99467.98;1693796;85;21317;-60
2021/04/27 07:40:30;;;;;;;2.67;1.40;;;;;;;8.28;43.16;99469.72;1706718;83;21180;-59
2021/04/27 07:42:57;;;;;;;2.92;1.20;;;;;;;8.37;41.68;99469.48;1722557;83;21213;-60
2021/04/27 07:45:30;;;;;;;2.65;1.30;;;;;;;8.54;42.70;99468.48;1722687;82;21628;-59
2021/04/27 07:47:59;;;;;;;2.87;1.57;;;;;;;8.68;41.76;99470.42;1722491;83;21316;-59
2021/04/27 07:50:26;;;;;;;4.00;1.30;;;;;;;8.65;42.47;99459.28;1696804;83;21719;-59
2021/04/27 07:52:54;;;;;;;1.85;1.17;;;;;;;8.62;42.73;99461.17;1722574;83;21177;-59
2021/04/27 07:55:22;;;;;;;2.33;1.20;;;;;;;8.76;41.29;99458.24;1711097;83;21336;-60
2021/04/27 07:57:49;;;;;;;2.10;1.37;;;;;;;8.99;42.43;99459.14;1694058;85;21215;-60
2021/04/27 08:00:38;;;;;;;1.92;1.10;;;;;;;9.17;41.00;99450.48;1704434;83;21615;-60
2021/04/27 08:03:05;;;;;;;2.75;1.55;;;;;;;9.32;40.10;99440.98;1668095;86;21329;-60
2021/04/27 08:05:33;;;;;;;2.22;1.27;;;;;;;9.32;41.33;99451.84;1680451;84;21206;-59
2021/04/27 08:08:00;;;;;;;3.45;1.40;;;;;;;9.18;40.75;99441.23;1668207;86;21235;-60
2021/04/27 08:10:28;;;;;;;2.25;1.22;;;;;;;9.23;40.46;99444.52;1667967;84;21246;-60
2021/04/27 08:12:55;;;;;;;2.20;0.98;;;;;;;9.35;38.70;99448.58;1668122;86;21188;-60
2021/04/27 08:15:27;;;;;;;2.33;1.10;;;;;;;9.18;38.56;99445.31;1679391;84;21173;-60
2021/04/27 08:17:56;;;;;;;1.82;1.05;;;;;;;9.14;38.11;99452.36;1696245;84;21160;-59
2021/04/27 08:20:24;;;;;;;1.98;1.00;;;;;;;9.13;39.47;99442.60;1695964;84;21488;-61
2021/04/27 08:22:52;;;;;;;4.62;1.32;;;;;;;9.20;38.82;99448.59;1695967;84;21204;-59
2021/04/27 08:25:21;;;;;;;1.77;1.10;;;;;;;9.35;38.61;99444.51;1685210;84;22236;-60
2021/04/27 08:27:48;;;;;;;3.02;1.27;;;;;;;9.53;37.64;99447.80;1667949;85;21200;-61
2021/04/27 08:30:18;;;;;;;2.40;1.25;;;;;;;9.41;39.19;99445.34;1668088;84;21206;-60
2021/04/27 08:32:46;;;;;;;3.05;1.80;;;;;;;9.46;38.70;99438.00;1668072;86;21348;-60
2021/04/27 08:35:13;;;;;;;2.08;1.00;;;;;;;9.61;38.94;99441.27;1668099;84;21342;-60
2021/04/27 08:37:41;;;;;;;3.40;1.30;;;;;;;9.80;36.89;99438.27;1667986;86;21376;-60
2021/04/27 08:40:11;;;;;;;1.60;1.02;;;;;;;10.08;38.67;99438.22;1667983;84;21175;-60
2021/04/27 08:42:38;;;;;;;1.95;1.00;;;;;;;10.32;37.54;99439.27;1668012;86;21241;-60
2021/04/27 08:45:08;;;;;;;2.47;1.20;;;;;;;10.39;35.18;99438.97;1668057;84;21194;-60
2021/04/27 08:47:36;;;;;;;2.15;1.05;;;;;;;10.26;34.79;99426.78;1668204;86;21183;-60
2021/04/27 08:50:07;;;;;;;2.45;1.15;;;;;;;10.13;35.75;99426.52;1668027;84;21232;-60
2021/04/27 08:52:34;;;;;;;2.20;1.15;;;;;;;10.13;37.12;99434.67;1668074;86;21602;-61
2021/04/27 08:55:01;;;;;;;1.72;0.95;;;;;;;10.43;36.67;99434.60;1668029;84;21199;-61
2021/04/27 08:57:28;;;;;;;1.98;1.10;;;;;;;10.60;36.62;99435.61;1667981;86;21181;-60
2021/04/27 08:59:55;;;;;;;1.90;1.15;;;;;;;10.45;35.07;99436.52;1667961;84;21206;-62
2021/04/27 09:02:28;;;;;;;2.70;1.10;;;;;;;10.18;35.69;99436.86;1673427;85;21205;-61
2021/04/27 09:04:56;;;;;;;2.90;1.30;;;;;;;9.71;35.53;99443.15;1682548;84;21175;-61
2021/04/27 09:07:28;;;;;;;1.62;0.85;;;;;;;9.37;35.80;99441.00;1704177;84;21385;-62
2021/04/27 09:09:58;;;;;;;2.42;1.20;;;;;;;9.19;37.02;99440.16;1704460;84;21624;-61
2021/04/27 09:12:31;;;;;;;1.80;1.10;;;;;;;9.11;37.15;99437.14;1704606;84;21208;-61
2021/04/27 09:14:59;;;;;;;1.40;0.80;;;;;;;9.15;36.77;99433.63;1677679;84;21176;-61
2021/04/27 09:17:28;;;;;;;2.30;1.10;;;;;;;9.28;35.29;99439.88;1704684;84;21390;-61
2021/04/27 09:19:58;;;;;;;2.50;1.10;;;;;;;9.42;34.91;99432.83;1698243;84;21192;-61
2021/04/27 09:22:34;;;;;;;1.92;0.95;;;;;;;9.63;37.20;99436.39;1676393;85;21647;-61
2021/04/27 09:25:06;;;;;;;2.35;1.05;;;;;;;9.77;35.33;99439.36;1683845;84;21226;-62
2021/04/27 09:27:37;;;;;;;2.98;0.90;;;;;;;9.83;36.15;99442.33;1704591;84;21299;-61
2021/04/27 09:30:21;;;;;;;3.62;1.60;;;;;;;9.59;35.64;99447.53;1696697;84;21253;-62
2021/04/27 09:32:57;;;;;;;3.12;1.90;;;;;;;9.39;36.50;99436.09;1676381;85;21613;-61
2021/04/27 09:35:43;;;;;;;2.12;1.50;;;;;;;9.40;37.18;99432.30;1674597;84;21624;-63
2021/04/27 09:38:22;;;;;;;2.08;1.17;;;;;;;9.33;36.92;99435.83;1676489;85;21192;-62
2021/04/27 09:41:00;;;;;;;2.55;1.45;;;;;;;9.18;38.35;99437.16;1693223;84;21708;-61
2021/04/27 09:43:38;;;;;;;1.98;1.10;;;;;;;9.13;38.31;99433.64;1704677;84;21299;-62
2021/04/27 09:46:13;;;;;;;1.82;1.30;;;;;;;9.21;38.18;99440.69;1704712;84;21149;-61
2021/04/27 09:48:50;;;;;;;2.60;1.10;;;;;;;9.35;39.32;99439.08;1704765;84;21371;-61
2021/04/27 09:51:26;;;;;;;1.90;1.17;;;;;;;9.64;37.90;99437.99;1684898;85;21229;-61
2021/04/27 09:53:58;;;;;;;2.25;1.05;;;;;;;9.85;35.51;99436.06;1686353;85;21328;-60
2021/04/27 09:56:43;;;;;;;3.52;1.20;;;;;;;10.05;36.45;99434.69;1687806;84;21185;-60
2021/04/27 09:59:21;;;;;;;2.75;1.10;;;;;;;10.12;35.29;99431.68;1687681;85;21227;-61
2021/04/27 10:01:51;;;;;;;2.62;0.95;;;;;;;10.20;36.46;99434.66;1682519;85;21198;-59
2021/04/27 10:04:19;;;;;;;2.12;0.90;;;;;;;10.26;35.97;99432.76;1670289;86;21362;-60
2021/04/27 10:06:47;;;;;;;1.42;0.80;;;;;;;10.26;34.98;99430.03;1685847;85;21213;-61
2021/04/27 10:09:17;;;;;;;1.80;1.00;;;;;;;10.15;34.82;99431.16;1686295;85;21327;-59
2021/04/27 10:11:44;;;;;;;2.02;1.17;;;;;;;10.01;36.21;99428.17;1684449;84;21391;-61
2021/04/27 10:14:11;;;;;;;2.42;1.35;;;;;;;10.02;35.98;99429.81;1696364;84;21234;-60
2021/04/27 10:16:39;;;;;;;3.10;1.25;;;;;;;10.07;36.45;99428.95;1684474;85;21343;-60
2021/04/27 10:19:08;;;;;;;2.45;1.00;;;;;;;9.99;36.06;99427.07;1696493;84;21643;-60
2021/04/27 10:21:37;;;;;;;2.77;0.90;;;;;;;9.89;36.13;99428.45;1685995;85;21197;-59
2021/04/27 10:24:14;;;;;;;1.57;0.80;;;;;;;9.95;37.43;99426.56;1686321;85;21205;-60
2021/04/27 10:26:46;;;;;;;2.95;1.17;;;;;;;10.04;34.82;99422.72;1684754;84;21685;-60
2021/04/27 10:29:21;;;;;;;2.25;0.98;;;;;;;9.97;35.53;99427.09;1696436;84;21184;-59
2021/04/27 10:32:17;;;;;;;2.65;0.98;;;;;;;9.78;34.25;99422.76;1684380;85;21761;-59
2021/04/27 10:35:03;;;;;;;2.35;1.10;;;;;;;9.48;34.41;99430.41;1696322;84;21659;-59
2021/04/27 10:37:34;;;;;;;2.80;1.30;;;;;;;9.54;37.22;99427.67;1684571;85;21323;-60
2021/04/27 10:40:02;;;;;;;2.72;1.10;;;;;;;9.85;40.24;99428.73;1672535;84;21941;-60
2021/04/27 10:42:31;;;;;;;1.82;0.93;;;;;;;10.21;36.71;99429.50;1642376;87;21671;-59
2021/04/27 10:45:06;;;;;;;1.65;0.93;;;;;;;10.40;35.63;99430.53;1679553;85;21239;-59
2021/04/27 10:47:44;;;;;;;4.92;1.27;;;;;;;10.26;34.65;99420.52;1642379;87;21236;-60
2021/04/27 10:50:28;;;;;;;2.37;0.75;;;;;;;9.81;34.44;99417.34;1667473;85;21670;-60
2021/04/27 10:52:59;;;;;;;1.72;0.80;;;;;;;9.50;35.15;99421.97;1669426;86;21228;-61
2021/04/27 10:55:31;;;;;;;1.22;0.65;;;;;;;9.42;35.52;99436.12;1660701;85;21723;-61
2021/04/27 10:58:02;;;;;;;2.45;1.00;;;;;;;9.44;35.81;99429.31;1642498;87;21624;-59
2021/04/27 11:00:41;;;;;;;1.52;0.80;;;;;;;9.37;35.96;99427.41;1669931;85;21239;-60
2021/04/27 11:03:25;;;;;;;3.80;1.00;;;;;;;9.39;35.02;99430.66;1612215;89;21216;-61
2021/04/27 11:06:09;;;;;;;1.95;0.80;;;;;;;9.43;35.49;99423.60;1680508;85;21582;-59
2021/04/27 11:08:56;;;;;;;2.08;0.90;;;;;;;9.64;35.90;99422.22;1670541;85;21224;-60
2021/04/27 11:11:28;;;;;;;3.02;1.10;;;;;;;9.83;34.84;99424.66;1692919;85;21181;-59
2021/04/27 11:14:21;;;;;;;1.27;0.82;;;;;;;9.95;33.69;99415.11;1692595;85;21201;-61
2021/04/27 11:16:54;;;;;;;3.33;1.00;;;;;;;10.02;33.72;99409.41;1692628;85;21319;-61
2021/04/27 11:19:35;;;;;;;1.75;0.70;;;;;;;10.09;34.59;99400.95;1692559;85;21154;-62
2021/04/27 11:22:18;;;;;;;4.08;1.37;;;;;;;10.10;32.10;99401.20;1692665;85;21221;-61
2021/04/27 11:24:46;;;;;;;3.98;1.90;;;;;;;10.05;31.97;99396.63;1691323;85;21613;-62
2021/04/27 11:27:23;;;;;;;4.03;1.50;;;;;;;9.87;32.38;99399.38;1694408;85;21351;-61
2021/04/27 11:30:08;;;;;;;2.47;1.27;;;;;;;9.84;33.58;99392.31;1694138;85;21184;-61
2021/04/27 11:32:41;;;;;;;1.60;1.00;;;;;;;9.85;34.10;99394.75;1692823;85;21761;-62
2021/04/27 11:35:20;;;;;;;2.02;0.95;;;;;;;9.80;34.42;99396.13;1666170;86;21209;-61
2021/04/27 11:37:56;;;;;;;2.58;1.02;;;;;;;9.85;34.10;99399.36;1694244;85;21379;-65
2021/04/27 11:40:29;;;;;;;1.82;0.80;;;;;;;9.92;35.14;99393.09;1683183;85;21246;-63
2021/04/27 11:43:01;;;;;;;1.75;1.00;;;;;;;10.06;34.40;99389.28;1666514;86;21181;-63
2021/04/27 11:45:31;;;;;;;1.45;0.70;;;;;;;10.16;34.34;99392.81;1678829;85;21360;-63
2021/04/27 11:47:59;;;;;;;1.52;0.82;;;;;;;10.24;33.04;99391.40;1694466;85;21197;-61
2021/04/27 11:50:31;;;;;;;1.45;0.57;;;;;;;9.97;34.24;99393.91;1682636;84;21656;-61
2021/04/27 11:53:07;;;;;;;1.35;0.68;;;;;;;9.54;34.81;99395.06;1666470;86;21220;-61
2021/04/27 11:55:50;;;;;;;1.22;0.60;;;;;;;9.36;34.85;99400.50;1680390;85;21214;-61
2021/04/27 11:58:30;;;;;;;1.40;0.60;;;;;;;9.45;35.25;99388.02;1694423;85;21197;-61
2021/04/27 12:01:03;;;;;;;1.52;0.72;;;;;;;9.38;33.42;99385.59;1694300;84;21303;-62
2021/04/27 12:03:42;;;;;;;4.37;0.80;;;;;;;9.08;34.32;99392.34;1688000;84;21213;-61